Indianapolis, IN (46296)

11:07 PM EST on February 28, 2015 (GMT -0500)
North Fountain Square | Change Station
CLOSE
Current Station
Personal Weather Station
Location: Indianapolis, IN
Elevation: 738 ft
Nearby Weather Stations
Active Advisory: Winter Weather Advisory Active Notice: Local Storm Report

Elev 738 ft 39.76 °N, 86.14 °W | Updated 1 second ago

Snow
Snow
21.7 °F
Feels Like 22 °F
N
0.0
Wind Variable Wind from South
Gusts 0.0 mph

Today
High -- | Low -- °F
--% Chance of Precip.
Yesterday
High -- | Low -- °F
Precip. -- in
7:19 AM 6:35 PM
Waxing Gibbous, 82% visible
Pressure 30.52 in
Visibility 1.0 miles
Clouds
Windchill 22 °F
Dew Point 18 °F
Humidity 84%
Rainfall 0.00 in
Snow Depth Not available.
UV Not available.
Pollen .60 out of 12
Air Quality Not available.
Flu Activity Not available.
METAR KIND 010354Z 11007KT 1SM R05L/P6000FT -SN BR VV015 M06/M08 A3048 RMK AO2 SLP333 SNINCR 1/6 P0007 T10611078

More Conditions Fewer Conditions

Pressure 30.52 in
Visibility 1.0 miles
Clouds
Windchill 22 °F
Dew Point 18 °F
Humidity 84%
Rainfall 0.00 in
Snow Depth Not available.
UV Not available.
Pollen .60 out of 12
Air Quality Not available.
Flu Activity Not available.
METAR KIND 010354Z 11007KT 1SM R05L/P6000FT -SN BR VV015 M06/M08 A3048 RMK AO2 SLP333 SNINCR 1/6 P0007 T10611078

More Conditions Fewer Conditions

10-Day Weather Forecast

Almanac

Astronomy

Feb. 28, 2015 Rise Set
Actual Time
Civil Twilight
Nautical Twilight
Astronomical Twilight
Moon
Length of Visible Light
Length of Day
Tomorrow will be .
, % of the Moon is Illuminated

Today's Extremes

State Highs State Lows

Community

WunderPhotos

Upload Photos

1,801,308 photos uploaded!

WunderBlogs® & News

Nearby

Air Quality

  Air Quality AQ Index Pollutant
Not available.

Snow Depth

Station Depth Elevation

Earthquake Activity

City Distance Mag. Time & Date
Minimum magnitude displayed is 2.5.

Coastal Water Temperatures

Place Temperature

Nearby Weather Stations

Winter Weather Advisory
Statement as of 8:21 PM EST on February 28, 2015

... Winter Weather Advisory remains in effect until 7 PM EST
Sunday...

A Winter Weather Advisory remains in effect until 7 PM EST
Sunday.

* Timing... accumulating snow from this evening and lasting through
the day Sunday. The snow may mix with rain at times during the
day Sunday.

* Main impact... hazardous travel conditions due to accumulating
snow.

* Other impacts... reduced visibility in areas of heavier snow.

Precautionary/preparedness actions...

A Winter Weather Advisory for snow means that periods of
snow will cause travel difficulties. Be prepared for snow covered
roads and limited visibilities... and use caution while driving.